Terminal Aerodrome Forecast
Issued by NWS

Home | Current Version | Previous Version | Text Only | Print | Product List | Glossary On
Versions: 1 2 3 4 5 6 7 8 9 10 11 12 13
398
FTUS43 KAPX 201913 AAA
TAFMBL
TAF AMD
KMBL 201913Z 2019/2118 11008G18KT P6SM SKC
     FM210100 14011G23KT P6SM BKN130 WS020/16040KT
     FM210600 16009KT P6SM SHRA OVC070 WS020/18045KT
     FM210900 20009KT 4SM SHRA BR OVC010
     FM211100 23008KT 4SM SHRA BR OVC003
     FM211200 24008KT P6SM OVC003
     FM211700 27006KT P6SM SCT003=

USA.gov is the U.S. government's official web portal to all federal, state and local government web resources and services.